sensor_id;sensor_type;location;lat;lon;timestamp;pressure;altitude;pressure_sealevel;temperature;humidity
64711;BME280;51139;45.626;6.850;2023-06-14T00:00:21;81669.13;;;14.44;89.91
64711;BME280;51139;45.626;6.850;2023-06-14T00:02:48;81664.22;;;14.65;89.72
64711;BME280;51139;45.626;6.850;2023-06-14T00:05:13;81665.00;;;14.79;89.55
64711;BME280;51139;45.626;6.850;2023-06-14T00:07:40;81662.13;;;14.75;89.30
64711;BME280;51139;45.626;6.850;2023-06-14T00:10:13;81668.28;;;14.66;89.62
64711;BME280;51139;45.626;6.850;2023-06-14T00:12:39;81664.59;;;14.97;87.54
64711;BME280;51139;45.626;6.850;2023-06-14T00:15:05;81656.63;;;15.37;83.65
64711;BME280;51139;45.626;6.850;2023-06-14T00:17:31;81659.09;;;15.07;84.64
64711;BME280;51139;45.626;6.850;2023-06-14T00:19:57;81659.13;;;15.21;84.17
64711;BME280;51139;45.626;6.850;2023-06-14T00:22:23;81661.28;;;15.10;82.26
64711;BME280;51139;45.626;6.850;2023-06-14T00:24:53;81660.69;;;14.86;84.75
64711;BME280;51139;45.626;6.850;2023-06-14T00:27:18;81658.66;;;14.61;85.72
64711;BME280;51139;45.626;6.850;2023-06-14T00:29:43;81661.25;;;14.35;88.88
64711;BME280;51139;45.626;6.850;2023-06-14T00:32:09;81651.59;;;14.53;87.51
64711;BME280;51139;45.626;6.850;2023-06-14T00:34:34;81663.75;;;14.19;90.31
64711;BME280;51139;45.626;6.850;2023-06-14T00:37:00;81660.97;;;13.57;96.71
64711;BME280;51139;45.626;6.850;2023-06-14T00:39:25;81658.91;;;13.55;98.20
64711;BME280;51139;45.626;6.850;2023-06-14T00:41:51;81657.66;;;14.42;93.28
64711;BME280;51139;45.626;6.850;2023-06-14T00:44:17;81650.34;;;14.92;90.20
64711;BME280;51139;45.626;6.850;2023-06-14T00:46:45;81649.91;;;14.84;88.17
64711;BME280;51139;45.626;6.850;2023-06-14T00:49:12;81643.56;;;15.03;85.89
64711;BME280;51139;45.626;6.850;2023-06-14T00:51:38;81642.88;;;15.28;84.56
64711;BME280;51139;45.626;6.850;2023-06-14T00:54:04;81654.19;;;14.89;85.27
64711;BME280;51139;45.626;6.850;2023-06-14T00:56:30;81652.53;;;14.58;87.82
64711;BME280;51139;45.626;6.850;2023-06-14T00:58:56;81655.38;;;14.24;90.75
64711;BME280;51139;45.626;6.850;2023-06-14T01:01:21;81644.19;;;14.64;89.00
64711;BME280;51139;45.626;6.850;2023-06-14T01:03:47;81650.94;;;14.41;88.86
64711;BME280;51139;45.626;6.850;2023-06-14T01:06:26;81649.22;;;14.34;89.26
64711;BME280;51139;45.626;6.850;2023-06-14T01:12:29;81646.63;;;14.59;91.32
64711;BME280;51139;45.626;6.850;2023-06-14T01:14:57;81642.31;;;14.54;89.98
64711;BME280;51139;45.626;6.850;2023-06-14T01:17:22;81637.78;;;14.69;89.41
64711;BME280;51139;45.626;6.850;2023-06-14T01:19:48;81634.41;;;14.68;89.15
64711;BME280;51139;45.626;6.850;2023-06-14T01:22:14;81630.19;;;14.89;88.25
64711;BME280;51139;45.626;6.850;2023-06-14T01:24:39;81626.84;;;14.88;88.83
64711;BME280;51139;45.626;6.850;2023-06-14T01:27:10;81634.97;;;14.79;86.78
64711;BME280;51139;45.626;6.850;2023-06-14T01:29:36;81630.25;;;15.03;86.84
64711;BME280;51139;45.626;6.850;2023-06-14T01:32:02;81626.75;;;15.26;84.05
64711;BME280;51139;45.626;6.850;2023-06-14T01:34:28;81631.25;;;15.10;84.71
64711;BME280;51139;45.626;6.850;2023-06-14T01:36:54;81622.53;;;15.35;83.52
64711;BME280;51139;45.626;6.850;2023-06-14T01:39:20;81626.91;;;15.02;83.29
64711;BME280;51139;45.626;6.850;2023-06-14T01:41:47;81628.66;;;14.10;90.68
64711;BME280;51139;45.626;6.850;2023-06-14T01:44:16;81627.84;;;14.57;88.79
64711;BME280;51139;45.626;6.850;2023-06-14T01:46:42;81625.53;;;14.64;88.21
64711;BME280;51139;45.626;6.850;2023-06-14T01:49:08;81627.16;;;14.07;90.94
64711;BME280;51139;45.626;6.850;2023-06-14T01:51:34;81633.81;;;13.70;93.95
64711;BME280;51139;45.626;6.850;2023-06-14T01:54:00;81620.44;;;14.56;88.61
64711;BME280;51139;45.626;6.850;2023-06-14T01:56:25;81615.84;;;14.82;87.29
64711;BME280;51139;45.626;6.850;2023-06-14T01:58:51;81617.38;;;14.99;84.92
64711;BME280;51139;45.626;6.850;2023-06-14T02:01:17;81610.28;;;15.04;84.09
64711;BME280;51139;45.626;6.850;2023-06-14T02:03:44;81617.34;;;14.48;86.60
64711;BME280;51139;45.626;6.850;2023-06-14T02:06:10;81613.81;;;14.31;89.34
64711;BME280;51139;45.626;6.850;2023-06-14T02:08:35;81622.47;;;13.58;96.77
64711;BME280;51139;45.626;6.850;2023-06-14T02:11:01;81614.16;;;14.13;93.77
64711;BME280;51139;45.626;6.850;2023-06-14T02:13:26;81614.16;;;14.63;91.22
64711;BME280;51139;45.626;6.850;2023-06-14T02:15:51;81613.59;;;14.91;89.61
64711;BME280;51139;45.626;6.850;2023-06-14T02:18:20;81609.38;;;15.25;87.36
64711;BME280;51139;45.626;6.850;2023-06-14T02:20:45;81611.31;;;14.47;90.47
64711;BME280;51139;45.626;6.850;2023-06-14T02:23:10;81613.50;;;14.01;93.77
64711;BME280;51139;45.626;6.850;2023-06-14T02:25:36;81623.72;;;13.57;97.60
64711;BME280;51139;45.626;6.850;2023-06-14T02:28:01;81618.66;;;13.49;99.82
64711;BME280;51139;45.626;6.850;2023-06-14T02:30:26;81622.34;;;13.68;99.27
64711;BME280;51139;45.626;6.850;2023-06-14T02:32:52;81620.47;;;13.82;98.75
64711;BME280;51139;45.626;6.850;2023-06-14T02:35:18;81613.81;;;14.19;95.90
64711;BME280;51139;45.626;6.850;2023-06-14T02:37:45;81621.94;;;14.09;95.72
64711;BME280;51139;45.626;6.850;2023-06-14T02:40:11;81613.13;;;14.56;92.61
64711;BME280;51139;45.626;6.850;2023-06-14T02:42:36;81616.59;;;14.21;94.03
64711;BME280;51139;45.626;6.850;2023-06-14T02:45:02;81612.09;;;14.24;93.25
64711;BME280;51139;45.626;6.850;2023-06-14T02:47:29;81618.72;;;14.49;92.33
64711;BME280;51139;45.626;6.850;2023-06-14T02:49:55;81623.72;;;13.57;96.97
64711;BME280;51139;45.626;6.850;2023-06-14T02:52:20;81621.31;;;13.49;98.42
64711;BME280;51139;45.626;6.850;2023-06-14T02:54:47;81623.50;;;13.41;100.00
64711;BME280;51139;45.626;6.850;2023-06-14T02:57:14;81622.25;;;12.84;100.00
64711;BME280;51139;45.626;6.850;2023-06-14T02:59:39;81628.31;;;13.21;100.00
64711;BME280;51139;45.626;6.850;2023-06-14T03:02:05;81624.63;;;13.26;100.00
64711;BME280;51139;45.626;6.850;2023-06-14T03:04:30;81626.81;;;14.01;97.41
64711;BME280;51139;45.626;6.850;2023-06-14T03:07:02;81632.19;;;14.39;94.29
64711;BME280;51139;45.626;6.850;2023-06-14T03:09:34;81632.31;;;14.79;89.56
64711;BME280;51139;45.626;6.850;2023-06-14T03:12:00;81626.41;;;14.30;92.01
64711;BME280;51139;45.626;6.850;2023-06-14T03:14:25;81633.66;;;13.92;94.57
64711;BME280;51139;45.626;6.850;2023-06-14T03:16:50;81643.16;;;13.83;96.54
64711;BME280;51139;45.626;6.850;2023-06-14T03:19:16;81637.84;;;13.95;97.58
64711;BME280;51139;45.626;6.850;2023-06-14T03:21:41;81629.41;;;14.37;95.08
64711;BME280;51139;45.626;6.850;2023-06-14T03:24:09;81636.56;;;14.46;94.62
64711;BME280;51139;45.626;6.850;2023-06-14T03:26:35;81631.22;;;14.58;93.84
64711;BME280;51139;45.626;6.850;2023-06-14T03:29:02;81633.78;;;14.44;94.88
64711;BME280;51139;45.626;6.850;2023-06-14T03:31:29;81634.59;;;14.47;94.48
64711;BME280;51139;45.626;6.850;2023-06-14T03:33:58;81631.63;;;14.66;92.77
64711;BME280;51139;45.626;6.850;2023-06-14T03:36:23;81636.22;;;14.52;93.31
64711;BME280;51139;45.626;6.850;2023-06-14T03:38:48;81625.69;;;14.42;94.54
64711;BME280;51139;45.626;6.850;2023-06-14T03:41:14;81639.28;;;14.22;95.32
64711;BME280;51139;45.626;6.850;2023-06-14T03:43:39;81640.94;;;14.04;96.40
64711;BME280;51139;45.626;6.850;2023-06-14T03:46:04;81644.22;;;13.78;98.89
64711;BME280;51139;45.626;6.850;2023-06-14T03:48:30;81646.41;;;13.82;100.00
64711;BME280;51139;45.626;6.850;2023-06-14T03:50:55;81638.53;;;14.45;95.75
64711;BME280;51139;45.626;6.850;2023-06-14T03:53:21;81640.06;;;14.37;94.57
64711;BME280;51139;45.626;6.850;2023-06-14T03:55:49;81642.09;;;14.62;92.72
64711;BME280;51139;45.626;6.850;2023-06-14T03:58:15;81639.72;;;14.80;91.29
64711;BME280;51139;45.626;6.850;2023-06-14T04:00:41;81647.88;;;14.70;91.01
64711;BME280;51139;45.626;6.850;2023-06-14T04:03:06;81638.16;;;14.51;91.55
64711;BME280;51139;45.626;6.850;2023-06-14T04:05:31;81655.16;;;14.08;96.13
64711;BME280;51139;45.626;6.850;2023-06-14T04:07:57;81651.09;;;14.31;95.84
64711;BME280;51139;45.626;6.850;2023-06-14T04:10:24;81656.94;;;14.53;94.74
64711;BME280;51139;45.626;6.850;2023-06-14T04:12:49;81649.75;;;14.56;93.23
64711;BME280;51139;45.626;6.850;2023-06-14T04:15:15;81655.22;;;14.46;94.02
64711;BME280;51139;45.626;6.850;2023-06-14T04:17:40;81655.59;;;14.28;95.60
64711;BME280;51139;45.626;6.850;2023-06-14T04:20:06;81651.69;;;14.18;95.32
64711;BME280;51139;45.626;6.850;2023-06-14T04:22:34;81656.59;;;13.97;98.45
64711;BME280;51139;45.626;6.850;2023-06-14T04:24:59;81657.97;;;13.86;98.50
64711;BME280;51139;45.626;6.850;2023-06-14T04:27:28;81660.31;;;12.99;100.00
64711;BME280;51139;45.626;6.850;2023-06-14T04:29:56;81660.97;;;12.54;100.00
64711;BME280;51139;45.626;6.850;2023-06-14T04:32:29;81656.53;;;12.80;100.00
64711;BME280;51139;45.626;6.850;2023-06-14T04:35:05;81663.34;;;12.16;100.00
64711;BME280;51139;45.626;6.850;2023-06-14T04:37:31;81665.94;;;12.04;100.00
64711;BME280;51139;45.626;6.850;2023-06-14T04:39:57;81665.19;;;11.82;100.00
64711;BME280;51139;45.626;6.850;2023-06-14T04:42:23;81664.97;;;12.00;100.00
64711;BME280;51139;45.626;6.850;2023-06-14T04:44:56;81660.63;;;12.04;100.00
64711;BME280;51139;45.626;6.850;2023-06-14T04:47:21;81667.44;;;12.51;100.00
64711;BME280;51139;45.626;6.850;2023-06-14T04:49:47;81660.06;;;12.06;100.00
64711;BME280;51139;45.626;6.850;2023-06-14T04:52:13;81664.16;;;12.40;100.00
64711;BME280;51139;45.626;6.850;2023-06-14T04:54:39;81660.38;;;12.89;100.00
64711;BME280;51139;45.626;6.850;2023-06-14T04:57:07;81661.34;;;12.94;100.00
64711;BME280;51139;45.626;6.850;2023-06-14T04:59:32;81671.44;;;13.19;100.00
64711;BME280;51139;45.626;6.850;2023-06-14T05:02:00;81662.50;;;12.35;100.00
64711;BME280;51139;45.626;6.850;2023-06-14T05:04:26;81662.06;;;12.73;100.00
64711;BME280;51139;45.626;6.850;2023-06-14T05:06:53;81659.41;;;12.73;100.00
64711;BME280;51139;45.626;6.850;2023-06-14T05:09:20;81660.19;;;13.09;100.00
64711;BME280;51139;45.626;6.850;2023-06-14T05:11:46;81659.03;;;13.57;100.00
64711;BME280;51139;45.626;6.850;2023-06-14T05:14:13;81656.72;;;13.76;100.00
64711;BME280;51139;45.626;6.850;2023-06-14T05:16:38;81659.50;;;13.66;100.00
64711;BME280;51139;45.626;6.850;2023-06-14T05:19:04;81662.63;;;13.86;100.00
64711;BME280;51139;45.626;6.850;2023-06-14T05:21:30;81671.13;;;14.32;100.00
64711;BME280;51139;45.626;6.850;2023-06-14T05:23:55;81665.69;;;14.18;100.00
64711;BME280;51139;45.626;6.850;2023-06-14T05:26:21;81664.22;;;13.91;100.00
64711;BME280;51139;45.626;6.850;2023-06-14T05:28:48;81668.16;;;13.66;100.00
64711;BME280;51139;45.626;6.850;2023-06-14T05:31:14;81668.28;;;13.56;100.00
64711;BME280;51139;45.626;6.850;2023-06-14T05:33:40;81669.44;;;13.53;100.00
64711;BME280;51139;45.626;6.850;2023-06-14T05:36:05;81670.00;;;13.88;100.00
64711;BME280;51139;45.626;6.850;2023-06-14T05:38:31;81671.84;;;13.97;100.00
64711;BME280;51139;45.626;6.850;2023-06-14T05:40:56;81670.13;;;14.01;100.00
64711;BME280;51139;45.626;6.850;2023-06-14T05:43:21;81673.47;;;14.14;100.00
64711;BME280;51139;45.626;6.850;2023-06-14T05:45:47;81673.00;;;14.18;100.00
64711;BME280;51139;45.626;6.850;2023-06-14T05:48:12;81679.47;;;14.38;100.00
64711;BME280;51139;45.626;6.850;2023-06-14T05:50:37;81682.56;;;14.47;100.00
64711;BME280;51139;45.626;6.850;2023-06-14T05:53:03;81668.28;;;14.66;97.94
64711;BME280;51139;45.626;6.850;2023-06-14T05:55:28;81674.13;;;14.38;100.00
64711;BME280;51139;45.626;6.850;2023-06-14T05:57:53;81681.13;;;14.08;100.00
64711;BME280;51139;45.626;6.850;2023-06-14T06:00:19;81685.50;;;14.03;100.00
64711;BME280;51139;45.626;6.850;2023-06-14T06:02:45;81675.56;;;13.68;100.00
64711;BME280;51139;45.626;6.850;2023-06-14T06:05:13;81684.50;;;13.73;100.00
64711;BME280;51139;45.626;6.850;2023-06-14T06:07:38;81676.50;;;13.96;100.00
64711;BME280;51139;45.626;6.850;2023-06-14T06:10:05;81679.75;;;13.83;100.00
64711;BME280;51139;45.626;6.850;2023-06-14T06:12:31;81682.38;;;13.95;100.00
64711;BME280;51139;45.626;6.850;2023-06-14T06:14:57;81683.19;;;13.50;100.00
64711;BME280;51139;45.626;6.850;2023-06-14T06:17:23;81692.00;;;13.52;100.00
64711;BME280;51139;45.626;6.850;2023-06-14T06:19:48;81699.00;;;13.36;100.00
64711;BME280;51139;45.626;6.850;2023-06-14T06:22:14;81692.72;;;13.31;100.00
64711;BME280;51139;45.626;6.850;2023-06-14T06:24:39;81698.72;;;13.20;100.00
64711;BME280;51139;45.626;6.850;2023-06-14T06:27:05;81702.50;;;13.62;100.00
64711;BME280;51139;45.626;6.850;2023-06-14T06:29:33;81697.25;;;13.28;100.00
64711;BME280;51139;45.626;6.850;2023-06-14T06:31:58;81698.00;;;13.53;100.00
64711;BME280;51139;45.626;6.850;2023-06-14T06:34:24;81706.81;;;13.22;100.00
64711;BME280;51139;45.626;6.850;2023-06-14T06:36:49;81700.56;;;13.63;100.00
64711;BME280;51139;45.626;6.850;2023-06-14T06:39:15;81699.88;;;14.10;100.00
64711;BME280;51139;45.626;6.850;2023-06-14T06:41:40;81704.63;;;13.76;100.00
64711;BME280;51139;45.626;6.850;2023-06-14T06:44:06;81709.94;;;13.64;100.00
64711;BME280;51139;45.626;6.850;2023-06-14T06:46:32;81712.81;;;13.56;100.00
64711;BME280;51139;45.626;6.850;2023-06-14T06:48:57;81708.66;;;13.19;100.00
64711;BME280;51139;45.626;6.850;2023-06-14T06:51:23;81716.34;;;13.37;100.00
64711;BME280;51139;45.626;6.850;2023-06-14T06:53:53;81717.84;;;13.40;100.00
64711;BME280;51139;45.626;6.850;2023-06-14T06:56:18;81716.22;;;13.35;100.00
64711;BME280;51139;45.626;6.850;2023-06-14T06:58:44;81717.31;;;13.65;100.00
64711;BME280;51139;45.626;6.850;2023-06-14T07:01:10;81713.75;;;13.73;100.00
64711;BME280;51139;45.626;6.850;2023-06-14T07:03:35;81726.94;;;14.06;100.00
64711;BME280;51139;45.626;6.850;2023-06-14T07:06:01;81723.84;;;14.10;100.00
64711;BME280;51139;45.626;6.850;2023-06-14T07:08:26;81721.97;;;13.77;100.00
64711;BME280;51139;45.626;6.850;2023-06-14T07:10:52;81716.53;;;14.10;100.00
64711;BME280;51139;45.626;6.850;2023-06-14T07:13:17;81721.97;;;13.89;100.00
64711;BME280;51139;45.626;6.850;2023-06-14T07:15:43;81731.19;;;13.18;100.00
64711;BME280;51139;45.626;6.850;2023-06-14T07:18:08;81729.56;;;13.47;100.00
64711;BME280;51139;45.626;6.850;2023-06-14T07:20:34;81723.13;;;13.28;100.00
64711;BME280;51139;45.626;6.850;2023-06-14T07:22:59;81731.47;;;14.04;100.00
64711;BME280;51139;45.626;6.850;2023-06-14T07:25:24;81720.81;;;14.04;100.00
64711;BME280;51139;45.626;6.850;2023-06-14T07:27:50;81726.97;;;14.18;100.00
64711;BME280;51139;45.626;6.850;2023-06-14T07:30:15;81724.88;;;13.93;100.00
64711;BME280;51139;45.626;6.850;2023-06-14T07:32:41;81734.47;;;13.98;100.00
64711;BME280;51139;45.626;6.850;2023-06-14T07:35:07;81723.38;;;13.90;100.00
64711;BME280;51139;45.626;6.850;2023-06-14T07:37:32;81731.31;;;13.54;100.00
64711;BME280;51139;45.626;6.850;2023-06-14T07:39:57;81734.75;;;13.45;100.00
64711;BME280;51139;45.626;6.850;2023-06-14T07:42:23;81734.44;;;13.62;100.00
64711;BME280;51139;45.626;6.850;2023-06-14T07:44:48;81734.94;;;13.70;100.00
64711;BME280;51139;45.626;6.850;2023-06-14T07:47:15;81730.09;;;14.03;100.00
64711;BME280;51139;45.626;6.850;2023-06-14T07:49:40;81731.53;;;13.58;100.00
64711;BME280;51139;45.626;6.850;2023-06-14T07:52:06;81727.03;;;14.44;100.00
64711;BME280;51139;45.626;6.850;2023-06-14T07:54:32;81730.03;;;14.62;100.00
64711;BME280;51139;45.626;6.850;2023-06-14T07:56:58;81730.66;;;14.98;100.00
64711;BME280;51139;45.626;6.850;2023-06-14T07:59:25;81732.31;;;14.92;100.00
64711;BME280;51139;45.626;6.850;2023-06-14T08:01:51;81724.94;;;14.78;100.00
64711;BME280;51139;45.626;6.850;2023-06-14T08:04:16;81726.59;;;14.97;100.00
64711;BME280;51139;45.626;6.850;2023-06-14T08:06:42;81732.00;;;14.73;100.00
64711;BME280;51139;45.626;6.850;2023-06-14T08:09:11;81723.88;;;15.47;100.00
64711;BME280;51139;45.626;6.850;2023-06-14T08:11:37;81720.84;;;15.53;96.72
64711;BME280;51139;45.626;6.850;2023-06-14T08:14:03;81725.59;;;14.91;100.00
64711;BME280;51139;45.626;6.850;2023-06-14T08:16:28;81721.34;;;15.11;100.00
64711;BME280;51139;45.626;6.850;2023-06-14T08:18:55;81724.59;;;15.10;100.00
64711;BME280;51139;45.626;6.850;2023-06-14T08:21:21;81720.88;;;15.41;100.00
64711;BME280;51139;45.626;6.850;2023-06-14T08:23:46;81716.59;;;15.10;100.00
64711;BME280;51139;45.626;6.850;2023-06-14T08:26:12;81725.03;;;15.44;100.00
64711;BME280;51139;45.626;6.850;2023-06-14T08:28:38;81729.16;;;15.59;100.00
64711;BME280;51139;45.626;6.850;2023-06-14T08:31:03;81718.44;;;16.39;91.00
64711;BME280;51139;45.626;6.850;2023-06-14T08:33:28;81713.88;;;16.27;85.56
64711;BME280;51139;45.626;6.850;2023-06-14T08:35:54;81724.84;;;16.33;83.76
64711;BME280;51139;45.626;6.850;2023-06-14T08:38:19;81724.78;;;16.59;84.26
64711;BME280;51139;45.626;6.850;2023-06-14T08:40:48;81726.75;;;16.31;100.00
64711;BME280;51139;45.626;6.850;2023-06-14T08:43:15;81728.00;;;15.76;100.00
64711;BME280;51139;45.626;6.850;2023-06-14T08:45:40;81729.56;;;15.93;100.00
64711;BME280;51139;45.626;6.850;2023-06-14T08:48:07;81729.00;;;15.83;100.00
64711;BME280;51139;45.626;6.850;2023-06-14T08:50:32;81724.91;;;15.94;100.00
64711;BME280;51139;45.626;6.850;2023-06-14T08:53:00;81735.75;;;15.84;100.00
64711;BME280;51139;45.626;6.850;2023-06-14T08:55:28;81726.94;;;16.77;100.00
64711;BME280;51139;45.626;6.850;2023-06-14T08:57:56;81730.63;;;16.42;100.00
64711;BME280;51139;45.626;6.850;2023-06-14T09:00:26;81727.34;;;16.43;100.00
64711;BME280;51139;45.626;6.850;2023-06-14T09:02:53;81722.59;;;16.28;100.00
64711;BME280;51139;45.626;6.850;2023-06-14T09:05:26;81728.00;;;16.16;100.00
64711;BME280;51139;45.626;6.850;2023-06-14T09:07:53;81729.03;;;16.37;100.00
64711;BME280;51139;45.626;6.850;2023-06-14T09:10:22;81719.63;;;16.36;96.22
64711;BME280;51139;45.626;6.850;2023-06-14T09:12:48;81733.19;;;16.54;100.00
64711;BME280;51139;45.626;6.850;2023-06-14T09:15:13;81724.88;;;16.61;97.64
64711;BME280;51139;45.626;6.850;2023-06-14T09:17:39;81727.53;;;17.03;100.00
64711;BME280;51139;45.626;6.850;2023-06-14T09:20:06;81723.97;;;16.71;97.86
64711;BME280;51139;45.626;6.850;2023-06-14T09:22:35;81728.91;;;16.76;100.00
64711;BME280;51139;45.626;6.850;2023-06-14T09:25:00;81724.06;;;16.17;97.42
64711;BME280;51139;45.626;6.850;2023-06-14T09:27:26;81722.94;;;15.94;99.33
64711;BME280;51139;45.626;6.850;2023-06-14T09:29:52;81723.69;;;15.83;92.46
64711;BME280;51139;45.626;6.850;2023-06-14T09:32:18;81732.94;;;16.08;91.65
64711;BME280;51139;45.626;6.850;2023-06-14T09:34:45;81730.88;;;15.80;91.53
64711;BME280;51139;45.626;6.850;2023-06-14T09:37:10;81737.91;;;16.13;90.99
64711;BME280;51139;45.626;6.850;2023-06-14T09:39:35;81744.66;;;15.88;88.89
64711;BME280;51139;45.626;6.850;2023-06-14T09:42:18;81735.97;;;15.88;89.59
64711;BME280;51139;45.626;6.850;2023-06-14T09:44:45;81746.56;;;16.40;89.17
64711;BME280;51139;45.626;6.850;2023-06-14T09:47:12;81735.56;;;16.61;85.35
64711;BME280;51139;45.626;6.850;2023-06-14T09:49:39;81743.88;;;17.10;79.11
64711;BME280;51139;45.626;6.850;2023-06-14T09:52:05;81738.41;;;17.21;75.59
64711;BME280;51139;45.626;6.850;2023-06-14T09:54:33;81740.59;;;17.11;74.96
64711;BME280;51139;45.626;6.850;2023-06-14T09:57:05;81732.09;;;17.15;77.24
64711;BME280;51139;45.626;6.850;2023-06-14T09:59:32;81736.44;;;17.82;77.10
64711;BME280;51139;45.626;6.850;2023-06-14T10:01:58;81734.97;;;17.79;76.67
64711;BME280;51139;45.626;6.850;2023-06-14T10:04:26;81739.03;;;18.10;78.47
64711;BME280;51139;45.626;6.850;2023-06-14T10:06:53;81738.78;;;18.36;66.71
64711;BME280;51139;45.626;6.850;2023-06-14T10:09:19;81740.25;;;18.23;62.19
64711;BME280;51139;45.626;6.850;2023-06-14T10:11:47;81739.13;;;18.12;66.95
64711;BME280;51139;45.626;6.850;2023-06-14T10:14:13;81736.91;;;18.38;72.41
64711;BME280;51139;45.626;6.850;2023-06-14T10:16:56;81730.56;;;18.80;74.71
64711;BME280;51139;45.626;6.850;2023-06-14T10:19:30;81729.72;;;18.75;79.25
64711;BME280;51139;45.626;6.850;2023-06-14T10:22:08;81732.41;;;19.25;75.31
64711;BME280;51139;45.626;6.850;2023-06-14T10:24:40;81729.94;;;18.98;77.58
64711;BME280;51139;45.626;6.850;2023-06-14T10:27:07;81734.53;;;18.79;68.61
64711;BME280;51139;45.626;6.850;2023-06-14T10:32:23;81729.66;;;18.91;78.17
64711;BME280;51139;45.626;6.850;2023-06-14T10:34:58;81733.59;;;18.40;76.13
64711;BME280;51139;45.626;6.850;2023-06-14T10:37:24;81739.72;;;18.75;67.78
64711;BME280;51139;45.626;6.850;2023-06-14T10:39:50;81733.53;;;17.92;64.40
64711;BME280;51139;45.626;6.850;2023-06-14T10:42:15;81732.69;;;18.03;65.73
64711;BME280;51139;45.626;6.850;2023-06-14T10:47:09;81731.59;;;19.05;64.82
64711;BME280;51139;45.626;6.850;2023-06-14T10:49:42;81719.28;;;19.00;66.34
64711;BME280;51139;45.626;6.850;2023-06-14T10:52:09;81727.81;;;19.28;62.48
64711;BME280;51139;45.626;6.850;2023-06-14T10:55:07;81734.63;;;18.81;70.14
64711;BME280;51139;45.626;6.850;2023-06-14T10:57:42;81737.63;;;18.89;69.66
64711;BME280;51139;45.626;6.850;2023-06-14T11:00:09;81735.25;;;18.79;69.93
64711;BME280;51139;45.626;6.850;2023-06-14T11:05:55;81730.50;;;18.46;69.59
64711;BME280;51139;45.626;6.850;2023-06-14T11:08:40;81733.09;;;18.60;76.36
64711;BME280;51139;45.626;6.850;2023-06-14T11:11:12;81729.09;;;19.27;78.65
64711;BME280;51139;45.626;6.850;2023-06-14T11:13:44;81731.69;;;18.75;82.46
64711;BME280;51139;45.626;6.850;2023-06-14T11:16:19;81725.72;;;18.76;75.25
64711;BME280;51139;45.626;6.850;2023-06-14T11:18:44;81731.75;;;18.93;75.23
64711;BME280;51139;45.626;6.850;2023-06-14T11:21:10;81731.78;;;18.77;77.08
64711;BME280;51139;45.626;6.850;2023-06-14T11:23:36;81713.88;;;18.49;80.51
64711;BME280;51139;45.626;6.850;2023-06-14T11:26:02;81734.38;;;18.43;74.80
64711;BME280;51139;45.626;6.850;2023-06-14T11:28:39;81731.34;;;18.83;80.52
64711;BME280;51139;45.626;6.850;2023-06-14T11:31:06;81724.34;;;18.43;73.86
64711;BME280;51139;45.626;6.850;2023-06-14T11:33:32;81723.22;;;19.31;79.82
64711;BME280;51139;45.626;6.850;2023-06-14T11:35:57;81730.56;;;18.80;73.16
64711;BME280;51139;45.626;6.850;2023-06-14T11:38:23;81735.13;;;18.93;70.91
64711;BME280;51139;45.626;6.850;2023-06-14T11:40:48;81731.31;;;18.99;75.86
64711;BME280;51139;45.626;6.850;2023-06-14T11:43:13;81733.16;;;19.62;66.64
64711;BME280;51139;45.626;6.850;2023-06-14T11:45:39;81727.78;;;19.62;67.30
64711;BME280;51139;45.626;6.850;2023-06-14T11:48:06;81716.66;;;19.70;61.21
64711;BME280;51139;45.626;6.850;2023-06-14T11:50:31;81724.94;;;19.76;58.55
64711;BME280;51139;45.626;6.850;2023-06-14T11:52:59;81722.75;;;18.86;53.19
64711;BME280;51139;45.626;6.850;2023-06-14T11:55:32;81718.59;;;18.83;60.87
64711;BME280;51139;45.626;6.850;2023-06-14T11:57:57;81727.97;;;18.98;55.70
64711;BME280;51139;45.626;6.850;2023-06-14T12:00:25;81716.31;;;19.25;59.63
64711;BME280;51139;45.626;6.850;2023-06-14T12:02:53;81703.78;;;18.48;57.64
64711;BME280;51139;45.626;6.850;2023-06-14T12:05:21;81712.19;;;19.06;60.22
64711;BME280;51139;45.626;6.850;2023-06-14T12:07:47;81713.88;;;18.81;59.30
64711;BME280;51139;45.626;6.850;2023-06-14T12:10:13;81720.78;;;19.37;57.76
64711;BME280;51139;45.626;6.850;2023-06-14T12:12:40;81714.38;;;19.28;59.60
64711;BME280;51139;45.626;6.850;2023-06-14T12:15:08;81708.84;;;19.24;59.72
64711;BME280;51139;45.626;6.850;2023-06-14T12:17:35;81701.84;;;19.17;57.78
64711;BME280;51139;45.626;6.850;2023-06-14T12:20:12;81718.16;;;19.39;56.42
64711;BME280;51139;45.626;6.850;2023-06-14T12:22:54;81716.16;;;19.21;54.71
64711;BME280;51139;45.626;6.850;2023-06-14T12:25:27;81718.78;;;19.03;52.95
64711;BME280;51139;45.626;6.850;2023-06-14T12:27:54;81712.19;;;19.06;52.10
64711;BME280;51139;45.626;6.850;2023-06-14T12:30:20;81720.69;;;18.85;52.64
64711;BME280;51139;45.626;6.850;2023-06-14T12:32:45;81721.03;;;18.77;52.34
64711;BME280;51139;45.626;6.850;2023-06-14T12:35:10;81723.72;;;18.77;52.35
64711;BME280;51139;45.626;6.850;2023-06-14T12:37:36;81728.06;;;18.68;53.54
64711;BME280;51139;45.626;6.850;2023-06-14T12:40:01;81728.41;;;18.76;51.69
64711;BME280;51139;45.626;6.850;2023-06-14T12:42:31;81733.06;;;18.76;53.42
64711;BME280;51139;45.626;6.850;2023-06-14T12:44:56;81727.16;;;18.95;55.46
64711;BME280;51139;45.626;6.850;2023-06-14T12:47:21;81727.28;;;18.49;63.33
64711;BME280;51139;45.626;6.850;2023-06-14T12:49:47;81716.03;;;18.37;63.14
64711;BME280;51139;45.626;6.850;2023-06-14T12:52:12;81719.84;;;18.32;66.85
64711;BME280;51139;45.626;6.850;2023-06-14T12:54:37;81728.13;;;18.86;67.77
64711;BME280;51139;45.626;6.850;2023-06-14T12:57:05;81728.22;;;18.88;64.16
64711;BME280;51139;45.626;6.850;2023-06-14T12:59:30;81730.75;;;18.20;63.98
64711;BME280;51139;45.626;6.850;2023-06-14T13:02:09;81723.22;;;18.32;67.52
64711;BME280;51139;45.626;6.850;2023-06-14T13:04:34;81722.09;;;18.37;65.48
64711;BME280;51139;45.626;6.850;2023-06-14T13:07:00;81726.94;;;18.57;68.91